Time;durP1;ratioP1;P1;durP2;ratioP2;P2;SDS_P1;SDS_P2;PMS_P1;PMS_P2;Temp;Humidity;BMP_temperature;BMP_pressure;BME280_temperature;BME280_humidity;BME280_pressure;Samples;Min_cycle;Max_cycle;Signal;HPM_P1;HPM_P2
2021/12/03 00:00:16;;;;;;;19.55;13.40;;;;;;;-0.53;99.97;101021.34;5012178;28;20490;-69
2021/12/03 00:02:41;;;;;;;20.75;14.07;;;;;;;-0.49;99.77;101021.88;5006544;28;20030;-69
2021/12/03 00:05:09;;;;;;;21.45;14.23;;;;;;;-0.50;99.95;101027.44;5004597;28;20472;-69
2021/12/03 00:07:36;;;;;;;25.40;14.17;;;;;;;-0.46;99.53;101031.50;5010040;28;20520;-70
2021/12/03 00:10:04;;;;;;;22.50;14.70;;;;;;;-0.50;99.55;101030.13;5014478;28;20124;-69
2021/12/03 00:12:29;;;;;;;20.25;14.57;;;;;;;-0.49;99.60;101023.75;5026610;28;20017;-70
2021/12/03 00:14:54;;;;;;;22.90;14.50;;;;;;;-0.50;99.61;101022.06;5026224;28;20473;-68
2021/12/03 00:17:20;;;;;;;23.52;15.07;;;;;;;-0.50;99.62;101027.44;5016797;28;20044;-69
2021/12/03 00:19:45;;;;;;;21.75;14.88;;;;;;;-0.52;99.37;101027.56;5005149;28;20030;-69
2021/12/03 00:22:10;;;;;;;23.17;15.07;;;;;;;-0.55;99.56;101034.16;5005941;28;20022;-70
2021/12/03 00:24:38;;;;;;;23.13;15.38;;;;;;;-0.54;99.76;101032.28;5005421;28;20453;-69
2021/12/03 00:27:04;;;;;;;27.83;16.33;;;;;;;-0.57;99.86;101030.72;5005592;28;20126;-69
2021/12/03 00:29:29;;;;;;;25.30;15.93;;;;;;;-0.58;99.50;101034.44;5005548;28;20117;-70
2021/12/03 00:31:55;;;;;;;26.60;16.45;;;;;;;-0.61;99.65;101040.16;5006092;28;20029;-68
2021/12/03 00:34:20;;;;;;;23.80;15.95;;;;;;;-0.65;99.62;101033.38;5005056;28;20049;-70
2021/12/03 00:36:45;;;;;;;29.98;17.60;;;;;;;-0.62;99.77;101041.13;5005935;28;20033;-70
2021/12/03 00:39:10;;;;;;;26.25;18.15;;;;;;;-0.65;99.99;101038.75;5003398;28;20029;-69
2021/12/03 00:41:45;;;;;;;29.00;18.95;;;;;;;-0.66;99.92;101038.91;5003771;28;20026;-69
2021/12/03 00:44:10;;;;;;;29.77;20.52;;;;;;;-0.67;99.78;101039.91;5005282;28;20014;-69
2021/12/03 00:46:35;;;;;;;32.08;20.13;;;;;;;-0.68;100.00;101033.66;5003201;28;20029;-69
2021/12/03 00:49:00;;;;;;;33.60;21.52;;;;;;;-0.68;100.00;101038.22;5004620;28;20145;-70
2021/12/03 00:51:26;;;;;;;31.98;20.20;;;;;;;-0.70;100.00;101043.78;5005540;28;20021;-69
2021/12/03 00:53:52;;;;;;;36.53;20.75;;;;;;;-0.68;100.00;101039.06;5004662;28;20495;-70
2021/12/03 00:56:17;;;;;;;31.15;20.13;;;;;;;-0.66;100.00;101033.50;5004777;28;20053;-70
2021/12/03 00:58:43;;;;;;;34.38;20.73;;;;;;;-0.67;100.00;101035.34;5005405;28;20026;-70
2021/12/03 01:01:09;;;;;;;33.95;19.75;;;;;;;-0.70;100.00;101046.47;5004467;28;20396;-69
2021/12/03 01:03:36;;;;;;;35.30;21.23;;;;;;;-0.63;99.99;101047.53;5013974;28;20094;-70
2021/12/03 01:06:02;;;;;;;35.22;20.42;;;;;;;-0.68;100.00;101040.91;5013078;28;20393;-70
2021/12/03 01:08:27;;;;;;;33.63;21.15;;;;;;;-0.71;100.00;101039.38;5004844;28;20038;-70
2021/12/03 01:10:53;;;;;;;30.73;20.38;;;;;;;-0.72;100.00;101043.06;5004115;28;20426;-70
2021/12/03 01:13:18;;;;;;;34.90;21.73;;;;;;;-0.72;100.00;101040.34;5004908;28;20021;-70
2021/12/03 01:15:44;;;;;;;28.38;20.17;;;;;;;-0.75;100.00;101046.06;5004436;28;20041;-70
2021/12/03 01:18:11;;;;;;;35.42;22.27;;;;;;;-0.73;100.00;101054.00;5004870;28;20109;-70
2021/12/03 01:20:38;;;;;;;29.75;20.67;;;;;;;-0.74;100.00;101055.00;5002785;28;20488;-69
2021/12/03 01:23:06;;;;;;;33.83;21.25;;;;;;;-0.77;100.00;101056.16;5004267;28;20674;-70
2021/12/03 01:25:32;;;;;;;34.95;22.20;;;;;;;-0.74;100.00;101066.66;5004477;28;20483;-70
2021/12/03 01:27:59;;;;;;;34.45;21.80;;;;;;;-0.73;100.00;101051.31;5005336;28;20038;-70
2021/12/03 01:30:26;;;;;;;36.47;21.88;;;;;;;-0.73;100.00;101054.00;5004495;28;20137;-70
2021/12/03 01:32:52;;;;;;;39.05;21.95;;;;;;;-0.74;100.00;101057.72;5008875;28;20496;-70
2021/12/03 01:35:18;;;;;;;34.85;22.80;;;;;;;-0.72;100.00;101055.69;5005402;28;20029;-70
2021/12/03 01:37:45;;;;;;;36.20;22.48;;;;;;;-0.72;100.00;101053.84;5004915;28;20033;-70
2021/12/03 01:40:14;;;;;;;34.72;23.13;;;;;;;-0.72;100.00;101059.25;5004227;28;20036;-70
2021/12/03 01:42:41;;;;;;;37.05;22.38;;;;;;;-0.68;100.00;101049.84;5008693;28;20038;-69
2021/12/03 01:45:08;;;;;;;36.03;23.25;;;;;;;-0.65;100.00;101054.09;5003342;28;20036;-70
2021/12/03 01:47:33;;;;;;;40.83;23.27;;;;;;;-0.67;100.00;101042.59;5004684;28;20115;-70
2021/12/03 01:49:59;;;;;;;42.70;24.27;;;;;;;-0.59;100.00;101042.69;5002783;28;20101;-69
2021/12/03 01:52:24;;;;;;;38.85;25.83;;;;;;;-0.61;100.00;101040.16;5003109;28;20125;-70
2021/12/03 01:54:49;;;;;;;42.17;26.70;;;;;;;-0.60;100.00;101036.47;5008855;28;20033;-70
2021/12/03 01:57:16;;;;;;;41.22;25.58;;;;;;;-0.59;100.00;101032.75;5003426;28;20045;-70
2021/12/03 01:59:41;;;;;;;43.95;26.65;;;;;;;-0.61;100.00;101032.06;5003372;28;20041;-70
2021/12/03 02:02:08;;;;;;;47.35;28.00;;;;;;;-0.58;100.00;101047.09;5003693;28;20026;-70
2021/12/03 02:04:34;;;;;;;48.35;27.40;;;;;;;-0.58;100.00;101041.69;5003283;28;20026;-70
2021/12/03 02:06:59;;;;;;;46.35;29.40;;;;;;;-0.57;100.00;101046.91;5004010;28;20022;-70
2021/12/03 02:09:24;;;;;;;47.83;29.80;;;;;;;-0.54;100.00;101040.38;5003856;28;20034;-70
2021/12/03 02:11:50;;;;;;;50.17;28.67;;;;;;;-0.49;100.00;101029.97;5010260;28;20057;-70
2021/12/03 02:14:15;;;;;;;43.28;26.50;;;;;;;-0.41;100.00;101040.81;5003810;28;20030;-70
2021/12/03 02:16:44;;;;;;;45.80;28.38;;;;;;;-0.45;100.00;101044.03;5004435;28;20022;-69
2021/12/03 02:19:09;;;;;;;46.90;29.52;;;;;;;-0.46;100.00;101050.38;5003036;28;20030;-70
2021/12/03 02:21:34;;;;;;;55.72;32.10;;;;;;;-0.44;100.00;101051.94;5002990;28;20033;-70
2021/12/03 02:24:00;;;;;;;47.25;29.90;;;;;;;-0.40;100.00;101047.09;5003607;28;20052;-70
2021/12/03 02:26:25;;;;;;;48.72;30.65;;;;;;;-0.42;100.00;101041.84;5007800;28;20025;-69
2021/12/03 02:28:51;;;;;;;56.13;31.70;;;;;;;-0.34;100.00;101046.47;5004464;28;20029;-70
2021/12/03 02:31:20;;;;;;;54.92;33.47;;;;;;;-0.32;100.00;101039.91;5007529;28;20035;-69
2021/12/03 02:33:46;;;;;;;56.83;33.35;;;;;;;-0.28;100.00;101040.44;5003343;28;20120;-70
2021/12/03 02:36:12;;;;;;;69.63;34.95;;;;;;;-0.24;100.00;101030.19;5003488;28;20034;-69
2021/12/03 02:38:37;;;;;;;74.60;36.03;;;;;;;-0.19;100.00;101036.81;5001947;28;20488;-69
2021/12/03 02:41:03;;;;;;;73.45;37.95;;;;;;;-0.13;100.00;101038.03;5003092;28;20034;-69
2021/12/03 02:43:28;;;;;;;82.15;39.42;;;;;;;-0.14;100.00;101029.09;5004325;28;20053;-70
2021/12/03 02:45:56;;;;;;;93.97;38.38;;;;;;;-0.12;100.00;101026.22;5003926;28;20629;-70
2021/12/03 02:48:22;;;;;;;90.32;38.40;;;;;;;-0.08;100.00;101033.03;5004327;28;20034;-69
2021/12/03 02:50:47;;;;;;;90.65;39.65;;;;;;;-0.07;100.00;101026.63;5003416;28;20396;-70
2021/12/03 02:53:13;;;;;;;92.93;42.70;;;;;;;-0.08;100.00;101033.03;5020101;28;20036;-69
2021/12/03 02:55:39;;;;;;;97.65;41.70;;;;;;;-0.05;100.00;101033.56;5002035;28;20142;-69
2021/12/03 02:58:05;;;;;;;96.35;39.03;;;;;;;0.04;100.00;101041.72;5002481;28;20034;-69
2021/12/03 03:00:32;;;;;;;109.63;41.35;;;;;;;0.02;100.00;101039.16;5011090;28;20398;-69
2021/12/03 03:02:58;;;;;;;109.43;43.95;;;;;;;-0.01;100.00;101029.53;5024122;28;20369;-69
2021/12/03 03:05:24;;;;;;;114.75;43.90;;;;;;;-0.01;100.00;101034.91;5007105;28;20401;-69
2021/12/03 03:07:50;;;;;;;119.65;42.33;;;;;;;0.02;100.00;101030.22;5003712;28;20026;-70
2021/12/03 03:10:21;;;;;;;117.30;45.22;;;;;;;0.03;100.00;101023.81;5006647;28;20074;-69
2021/12/03 03:12:47;;;;;;;129.68;45.03;;;;;;;0.10;100.00;101028.44;5007481;28;20037;-69
2021/12/03 03:15:13;;;;;;;111.13;42.97;;;;;;;0.07;100.00;101026.03;5006903;28;20026;-70
2021/12/03 03:17:39;;;;;;;123.07;44.58;;;;;;;0.07;100.00;101023.34;5015750;28;20528;-70
2021/12/03 03:20:06;;;;;;;118.30;44.58;;;;;;;0.09;100.00;101021.31;5005191;28;20443;-69
2021/12/03 03:22:32;;;;;;;115.00;44.00;;;;;;;0.16;100.00;101014.28;5006561;28;20060;-69
2021/12/03 03:24:59;;;;;;;116.22;44.45;;;;;;;0.13;100.00;101017.31;5006755;28;20465;-70
2021/12/03 03:27:26;;;;;;;127.25;45.80;;;;;;;0.15;100.00;101014.44;5005895;28;20064;-69
2021/12/03 03:29:52;;;;;;;120.75;44.53;;;;;;;0.18;100.00;101003.31;5009181;28;20026;-70
2021/12/03 03:32:18;;;;;;;117.13;46.17;;;;;;;0.17;100.00;101018.69;5026631;28;20057;-69
2021/12/03 03:34:43;;;;;;;116.82;46.75;;;;;;;0.19;100.00;101008.56;5016276;28;20500;-70
2021/12/03 03:37:09;;;;;;;106.75;45.80;;;;;;;0.24;100.00;101016.19;5006145;28;20029;-72
2021/12/03 03:39:34;;;;;;;109.97;45.63;;;;;;;0.22;100.00;101021.75;5006633;28;20072;-72
2021/12/03 03:42:00;;;;;;;111.38;44.58;;;;;;;0.25;100.00;101028.69;5006831;28;20026;-72
2021/12/03 03:44:26;;;;;;;112.65;45.05;;;;;;;0.29;100.00;101018.41;5006086;28;20048;-72
2021/12/03 03:46:51;;;;;;;105.55;42.88;;;;;;;0.29;100.00;101024.66;5017019;28;20044;-72
2021/12/03 03:49:18;;;;;;;103.32;43.35;;;;;;;0.31;100.00;101022.66;5005343;28;20049;-73
2021/12/03 03:51:46;;;;;;;91.30;38.17;;;;;;;0.33;100.00;101012.53;5006536;28;20426;-72
2021/12/03 03:54:12;;;;;;;97.43;41.58;;;;;;;0.33;100.00;101017.94;5005942;28;20036;-72
2021/12/03 03:56:37;;;;;;;108.88;44.65;;;;;;;0.35;100.00;101013.22;5014949;28;20046;-73
2021/12/03 03:59:02;;;;;;;99.63;44.97;;;;;;;0.34;100.00;101014.22;5006380;28;20389;-72
2021/12/03 04:01:27;;;;;;;95.43;42.35;;;;;;;0.35;100.00;101002.41;5006571;28;20416;-72
2021/12/03 04:03:53;;;;;;;88.85;40.40;;;;;;;0.37;100.00;100992.31;5005727;28;20173;-72
2021/12/03 04:06:19;;;;;;;95.43;42.33;;;;;;;0.35;100.00;100994.28;5008151;28;20362;-72
2021/12/03 04:08:46;;;;;;;93.78;41.90;;;;;;;0.38;100.00;100994.00;5006035;28;20036;-72
2021/12/03 04:11:13;;;;;;;93.75;41.25;;;;;;;0.37;100.00;101000.41;5006073;28;20038;-72
2021/12/03 04:13:39;;;;;;;94.40;42.08;;;;;;;0.38;100.00;100991.28;5006527;28;20076;-72
2021/12/03 04:16:05;;;;;;;99.03;42.13;;;;;;;0.40;100.00;100994.66;5007716;28;20551;-72
2021/12/03 04:18:30;;;;;;;101.70;42.65;;;;;;;0.39;100.00;100984.03;5005292;28;20022;-72
2021/12/03 04:20:55;;;;;;;106.68;42.17;;;;;;;0.41;100.00;101000.94;5004997;28;20056;-72
2021/12/03 04:23:21;;;;;;;110.45;43.58;;;;;;;0.42;100.00;101005.34;5021712;28;20099;-72
2021/12/03 04:25:47;;;;;;;108.68;44.95;;;;;;;0.47;100.00;101000.28;5004716;28;20054;-72
2021/12/03 04:28:13;;;;;;;112.88;44.85;;;;;;;0.44;100.00;100992.50;5005461;28;20026;-72
2021/12/03 04:30:40;;;;;;;118.50;46.72;;;;;;;0.47;100.00;100989.47;5004262;28;20036;-72
2021/12/03 04:33:05;;;;;;;117.30;47.85;;;;;;;0.47;100.00;100984.06;5005297;28;20100;-71
2021/12/03 04:35:30;;;;;;;105.72;44.95;;;;;;;0.49;100.00;100988.28;5005048;28;20580;-72
2021/12/03 04:37:56;;;;;;;116.07;43.85;;;;;;;0.52;100.00;100989.84;5006076;28;20447;-72
2021/12/03 04:40:22;;;;;;;110.10;43.58;;;;;;;0.50;100.00;100992.69;5001346;28;20053;-72
2021/12/03 04:42:47;;;;;;;113.93;44.55;;;;;;;0.54;100.00;100990.50;5009747;28;20093;-72
2021/12/03 04:45:18;;;;;;;113.68;44.95;;;;;;;0.53;100.00;100994.22;5005748;28;20026;-72
2021/12/03 04:47:43;;;;;;;117.35;44.15;;;;;;;0.54;100.00;100986.97;5005414;28;20026;-72
2021/12/03 04:50:11;;;;;;;108.85;43.33;;;;;;;0.58;100.00;100996.44;5003288;28;20029;-72
2021/12/03 04:52:36;;;;;;;112.05;43.80;;;;;;;0.58;100.00;100999.16;5003812;28;20116;-70
2021/12/03 04:55:03;;;;;;;115.78;44.03;;;;;;;0.63;100.00;100994.09;5004665;28;20176;-70
2021/12/03 04:57:28;;;;;;;100.65;43.20;;;;;;;0.63;100.00;100988.72;5004670;28;20030;-71
2021/12/03 04:59:54;;;;;;;112.90;44.40;;;;;;;0.62;100.00;100993.25;5005138;28;20033;-70
2021/12/03 05:02:21;;;;;;;97.40;42.67;;;;;;;0.65;100.00;100987.50;5010976;28;20289;-70
2021/12/03 05:04:48;;;;;;;103.68;43.60;;;;;;;0.72;100.00;100974.22;5003760;28;20029;-70
2021/12/03 05:07:28;;;;;;;104.65;44.60;;;;;;;0.68;100.00;100970.13;5016241;28;20033;-70
2021/12/03 05:09:54;;;;;;;103.85;44.00;;;;;;;0.70;100.00;100977.06;5010852;28;20079;-69
2021/12/03 05:12:19;;;;;;;104.47;45.20;;;;;;;0.68;100.00;100964.72;5005020;28;20025;-69
2021/12/03 05:14:44;;;;;;;100.65;43.92;;;;;;;0.67;100.00;100963.06;5005178;28;20152;-70
2021/12/03 05:17:10;;;;;;;97.05;41.60;;;;;;;0.65;100.00;100963.19;5004028;28;20460;-69
2021/12/03 05:19:35;;;;;;;93.20;43.65;;;;;;;0.66;100.00;100953.22;5004254;28;20120;-70
2021/12/03 05:22:00;;;;;;;105.15;43.08;;;;;;;0.66;100.00;100953.22;5005191;28;20383;-70
2021/12/03 05:24:26;;;;;;;82.35;40.70;;;;;;;0.72;100.00;100958.00;5004270;28;20863;-69
2021/12/03 05:26:51;;;;;;;87.90;41.13;;;;;;;0.69;100.00;100947.50;5010948;28;20104;-69
2021/12/03 05:29:18;;;;;;;83.93;39.78;;;;;;;0.69;100.00;100953.75;5003320;28;20365;-70
2021/12/03 05:31:43;;;;;;;78.38;37.33;;;;;;;0.74;100.00;100953.25;5003750;28;20041;-69
2021/12/03 05:34:12;;;;;;;80.38;39.53;;;;;;;0.70;100.00;100966.25;5002947;28;20036;-70
2021/12/03 05:36:37;;;;;;;69.32;35.60;;;;;;;0.70;100.00;100951.88;5008453;28;20037;-70
2021/12/03 05:39:04;;;;;;;71.47;34.88;;;;;;;0.72;100.00;100963.41;5003538;28;20040;-70
2021/12/03 05:41:29;;;;;;;74.45;34.78;;;;;;;0.71;100.00;100969.78;5004582;28;20026;-69
2021/12/03 05:43:55;;;;;;;68.88;33.38;;;;;;;0.72;100.00;100964.25;5011455;28;20033;-69
2021/12/03 05:46:20;;;;;;;64.07;32.05;;;;;;;0.71;100.00;100961.69;5003861;28;20022;-69
2021/12/03 05:48:45;;;;;;;60.78;29.67;;;;;;;0.72;100.00;100972.34;5002284;28;20503;-69
2021/12/03 05:51:11;;;;;;;54.75;28.67;;;;;;;0.71;100.00;100965.25;5003513;28;20026;-71
2021/12/03 05:53:36;;;;;;;53.20;28.85;;;;;;;0.74;100.00;100972.19;5012263;28;20481;-69
2021/12/03 05:56:02;;;;;;;50.05;26.80;;;;;;;0.74;100.00;100973.03;5003675;28;20172;-69
2021/12/03 05:58:28;;;;;;;45.35;24.27;;;;;;;0.78;100.00;100962.75;5004878;28;20112;-69
2021/12/03 06:00:53;;;;;;;47.92;26.63;;;;;;;0.77;100.00;100961.91;5004502;28;20045;-69
2021/12/03 06:03:18;;;;;;;44.80;22.88;;;;;;;0.90;100.00;100971.38;5007010;28;20442;-69
2021/12/03 06:05:44;;;;;;;42.83;21.85;;;;;;;0.83;99.87;100970.38;5015999;28;20033;-69
2021/12/03 06:08:09;;;;;;;38.67;21.45;;;;;;;0.85;99.76;100969.16;5004649;28;20588;-69
2021/12/03 06:10:36;;;;;;;42.58;20.00;;;;;;;0.83;100.00;100973.91;5003833;28;20037;-69
2021/12/03 06:13:02;;;;;;;43.63;20.27;;;;;;;0.85;100.00;100961.06;5003856;28;20061;-69
2021/12/03 06:15:28;;;;;;;35.45;18.30;;;;;;;0.86;100.00;100949.22;5003021;28;20041;-70
2021/12/03 06:17:54;;;;;;;40.80;20.60;;;;;;;0.92;99.23;100962.13;5003990;28;20029;-69
2021/12/03 06:20:19;;;;;;;33.67;19.52;;;;;;;0.91;99.58;100955.03;5004196;28;20042;-69
2021/12/03 06:22:46;;;;;;;37.40;18.00;;;;;;;0.92;99.45;100964.81;5002771;28;20460;-69
2021/12/03 06:25:12;;;;;;;38.05;19.85;;;;;;;0.90;99.54;100958.72;5003618;28;20029;-69
2021/12/03 06:27:39;;;;;;;27.85;17.38;;;;;;;0.91;99.35;100965.84;5004574;28;20033;-69
2021/12/03 06:30:10;;;;;;;36.33;18.75;;;;;;;0.93;99.23;100961.09;5004044;28;20029;-69
2021/12/03 06:32:36;;;;;;;34.80;16.65;;;;;;;0.93;99.06;100947.56;5009428;28;20025;-69
2021/12/03 06:35:03;;;;;;;27.38;16.33;;;;;;;0.94;98.83;100953.81;4997364;28;20358;-69
2021/12/03 06:37:28;;;;;;;30.10;15.88;;;;;;;0.95;98.44;100942.84;5004580;28;20030;-70
2021/12/03 06:39:54;;;;;;;28.25;15.38;;;;;;;0.95;98.61;100945.53;5004278;28;20040;-69
2021/12/03 06:42:19;;;;;;;28.52;14.90;;;;;;;0.99;97.93;100955.03;5002838;28;20026;-69
2021/12/03 06:44:44;;;;;;;27.42;14.05;;;;;;;1.01;97.60;100946.72;5005565;28;21138;-69
2021/12/03 06:47:09;;;;;;;27.40;13.25;;;;;;;0.98;97.20;100945.22;5007509;28;20065;-69
2021/12/03 06:49:35;;;;;;;29.92;13.52;;;;;;;0.98;97.07;100942.50;5005676;28;21367;-69
2021/12/03 06:52:05;;;;;;;25.40;12.13;;;;;;;0.98;96.55;100945.22;5008076;28;20038;-70
2021/12/03 06:54:32;;;;;;;21.83;12.18;;;;;;;0.97;95.83;100951.66;5017214;28;20876;-70
2021/12/03 06:56:59;;;;;;;23.55;11.80;;;;;;;0.97;95.54;100961.63;5006440;28;20130;-69
2021/12/03 06:59:25;;;;;;;24.23;12.27;;;;;;;0.97;95.41;100954.34;5007135;28;20041;-68
2021/12/03 07:01:51;;;;;;;25.75;10.88;;;;;;;0.95;95.40;100958.22;5008214;28;20025;-69
2021/12/03 07:04:18;;;;;;;23.70;12.00;;;;;;;0.92;95.13;100954.00;5006949;28;20369;-70
2021/12/03 07:06:43;;;;;;;28.05;11.73;;;;;;;1.00;94.19;100958.56;5007799;28;20452;-70
2021/12/03 07:09:09;;;;;;;27.45;11.60;;;;;;;0.98;94.12;100952.50;5005143;28;20061;-70
2021/12/03 07:11:35;;;;;;;25.83;11.43;;;;;;;0.94;94.10;100946.56;5007736;28;20022;-71
2021/12/03 07:14:01;;;;;;;26.98;11.25;;;;;;;0.95;94.10;100947.41;5006411;28;20021;-70
2021/12/03 07:16:26;;;;;;;25.30;11.02;;;;;;;0.89;93.43;100946.22;5007732;28;20033;-70
2021/12/03 07:18:51;;;;;;;22.55;12.65;;;;;;;0.88;93.93;100941.81;5006659;28;20358;-70
2021/12/03 07:21:17;;;;;;;24.10;11.27;;;;;;;0.90;93.81;100938.94;5005457;28;20038;-71
2021/12/03 07:23:43;;;;;;;22.85;10.23;;;;;;;0.92;92.93;100937.78;5006627;28;20073;-73
2021/12/03 07:26:08;;;;;;;27.33;11.30;;;;;;;0.90;92.79;100938.94;5006574;28;20022;-70
2021/12/03 07:28:35;;;;;;;22.95;12.40;;;;;;;0.87;92.78;100925.78;5007194;28;20022;-71
2021/12/03 07:31:00;;;;;;;20.27;11.73;;;;;;;0.87;92.86;100923.91;5007089;28;20145;-71
2021/12/03 07:33:28;;;;;;;19.33;10.27;;;;;;;0.89;92.85;100932.69;5005846;28;20131;-70
2021/12/03 07:35:53;;;;;;;22.08;10.85;;;;;;;0.96;91.74;100933.72;5006605;28;20034;-70
2021/12/03 07:38:19;;;;;;;21.60;10.35;;;;;;;0.90;92.08;100928.13;5006939;28;20077;-71
2021/12/03 07:40:45;;;;;;;20.77;10.13;;;;;;;0.97;91.81;100932.72;5005878;28;20501;-70
2021/12/03 07:43:11;;;;;;;23.45;10.88;;;;;;;0.94;92.27;100935.75;5006919;28;20428;-70
2021/12/03 07:45:37;;;;;;;25.80;11.00;;;;;;;0.95;92.26;100936.59;5000413;28;20061;-71
2021/12/03 07:48:04;;;;;;;28.52;10.85;;;;;;;0.93;92.08;100947.56;5005824;28;20123;-71
2021/12/03 07:50:33;;;;;;;23.58;10.60;;;;;;;1.00;92.03;100937.78;5005389;28;20100;-69
2021/12/03 07:52:58;;;;;;;23.55;10.57;;;;;;;1.06;91.13;100938.97;5006414;28;20038;-70
2021/12/03 07:55:24;;;;;;;20.05;8.48;;;;;;;1.04;91.81;100931.03;5004037;28;20354;-69
2021/12/03 07:57:49;;;;;;;22.60;10.43;;;;;;;1.06;91.91;100930.00;5009102;28;20065;-69
2021/12/03 08:00:15;;;;;;;22.17;10.30;;;;;;;1.01;91.75;100928.66;5026226;28;20270;-69
2021/12/03 08:02:41;;;;;;;24.27;11.27;;;;;;;1.05;91.65;100926.47;5025432;28;20183;-69
2021/12/03 08:05:06;;;;;;;23.90;9.52;;;;;;;1.11;91.21;100933.06;5007524;28;20030;-69
2021/12/03 08:07:32;;;;;;;20.80;10.27;;;;;;;1.08;91.19;100936.97;5006754;28;20058;-70
2021/12/03 08:09:57;;;;;;;23.42;10.55;;;;;;;1.08;91.83;100920.72;5006080;28;20064;-69
2021/12/03 08:12:22;;;;;;;26.48;10.60;;;;;;;1.09;91.77;100918.88;5006489;28;20055;-69
2021/12/03 08:14:48;;;;;;;26.88;9.77;;;;;;;1.13;91.60;100922.94;5017065;28;20033;-69
2021/12/03 08:17:13;;;;;;;27.67;8.48;;;;;;;1.19;91.08;100920.41;5025775;28;20029;-69
2021/12/03 08:19:38;;;;;;;26.35;8.73;;;;;;;1.17;91.25;100927.00;5025255;28;20091;-69
2021/12/03 08:22:04;;;;;;;20.67;7.03;;;;;;;1.19;91.30;100923.09;5025754;28;20384;-69
2021/12/03 08:24:29;;;;;;;31.20;9.73;;;;;;;1.21;91.71;100928.34;5011301;28;20032;-69
2021/12/03 08:26:55;;;;;;;25.00;9.00;;;;;;;1.24;91.31;100919.88;5005981;28;20040;-70
2021/12/03 08:29:20;;;;;;;23.63;8.63;;;;;;;1.29;91.28;100921.06;5005463;28;20496;-69
2021/12/03 08:31:46;;;;;;;17.13;8.18;;;;;;;1.33;91.00;100918.03;5006302;28;20041;-69
2021/12/03 08:34:11;;;;;;;21.88;7.55;;;;;;;1.37;90.29;100920.25;5012487;28;20074;-70
2021/12/03 08:36:36;;;;;;;22.02;7.82;;;;;;;1.39;90.31;100918.22;5015437;28;20042;-70
2021/12/03 08:39:03;;;;;;;18.60;7.38;;;;;;;1.47;89.85;100918.22;5005114;28;20049;-69
2021/12/03 08:41:28;;;;;;;21.35;7.78;;;;;;;1.49;90.73;100916.16;5006100;28;20064;-70
2021/12/03 08:43:54;;;;;;;18.48;7.75;;;;;;;1.53;89.92;100913.97;5005482;28;20061;-70
2021/12/03 08:46:27;;;;;;;23.77;7.88;;;;;;;1.54;89.88;100919.22;5004086;28;20026;-70
2021/12/03 08:48:52;;;;;;;24.50;8.55;;;;;;;1.60;89.92;100908.72;5004360;28;20036;-70
2021/12/03 08:51:31;;;;;;;20.65;7.40;;;;;;;1.61;89.28;100911.25;5004742;28;20030;-70
2021/12/03 08:56:40;;;;;;;23.25;7.70;;;;;;;1.64;89.42;100904.66;5003641;28;20076;-69
2021/12/03 08:59:06;;;;;;;22.35;8.02;;;;;;;1.71;88.75;100908.38;5005296;28;20728;-69
2021/12/03 09:01:33;;;;;;;27.80;9.43;;;;;;;1.67;88.51;100904.28;5005437;28;20472;-69
2021/12/03 09:03:58;;;;;;;23.63;7.13;;;;;;;1.75;88.72;100907.00;5003399;28;20017;-70
2021/12/03 09:06:23;;;;;;;27.30;8.82;;;;;;;1.71;88.90;100894.81;5005899;28;20112;-70
2021/12/03 09:08:48;;;;;;;23.17;8.05;;;;;;;1.72;88.68;100901.91;5025423;28;20025;-69
2021/12/03 09:11:15;;;;;;;24.20;8.00;;;;;;;1.78;88.49;100914.81;5024679;28;20025;-69
2021/12/03 09:13:41;;;;;;;26.42;7.40;;;;;;;1.83;88.25;100901.59;5019219;28;20088;-69
2021/12/03 09:16:10;;;;;;;22.45;7.88;;;;;;;1.89;88.10;100898.19;5005048;28;20030;-69
2021/12/03 09:18:38;;;;;;;19.33;5.88;;;;;;;1.93;87.51;100880.56;5004654;28;20026;-69
2021/12/03 09:21:17;;;;;;;18.52;6.22;;;;;;;1.96;88.01;100885.63;5005014;28;20152;-69
2021/12/03 09:24:00;;;;;;;20.67;6.88;;;;;;;2.06;87.25;100882.72;5003686;28;20014;-70
2021/12/03 09:26:27;;;;;;;20.30;6.70;;;;;;;2.02;88.06;100884.91;5005079;28;20045;-70
2021/12/03 09:29:01;;;;;;;18.80;6.93;;;;;;;2.03;87.91;100877.66;5005894;28;20023;-70
2021/12/03 09:31:27;;;;;;;22.10;6.97;;;;;;;2.05;87.80;100891.88;5005236;28;20101;-70
2021/12/03 09:33:53;;;;;;;20.63;6.53;;;;;;;2.05;87.84;100890.00;5009536;28;20018;-69
2021/12/03 09:36:19;;;;;;;21.17;7.50;;;;;;;2.14;87.65;100890.84;5024451;28;20025;-70
2021/12/03 09:38:44;;;;;;;24.20;6.90;;;;;;;2.19;88.04;100893.03;5024803;28;20064;-69
2021/12/03 09:41:14;;;;;;;26.05;7.68;;;;;;;2.21;87.61;100885.53;5024134;28;20029;-69
2021/12/03 09:43:48;;;;;;;20.67;7.50;;;;;;;2.26;87.69;100892.13;5013296;28;20424;-71
2021/12/03 09:46:19;;;;;;;18.55;7.72;;;;;;;2.26;87.65;100880.44;5004722;28;20030;-73
2021/12/03 09:51:47;;;;;;;23.60;7.47;;;;;;;2.25;87.88;100874.19;5004353;28;20424;-72
2021/12/03 09:56:38;;;;;;;22.35;7.82;;;;;;;2.28;88.12;100852.16;4985206;28;20058;-72
2021/12/03 10:04:41;;;;;;;21.75;7.05;;;;;;;2.41;87.80;100837.19;5019677;28;20435;-72
2021/12/03 10:15:17;;;;;;;19.90;6.82;;;;;;;2.50;88.33;100831.53;5023503;28;20026;-72
2021/12/03 10:18:31;;;;;;;16.33;7.10;;;;;;;2.55;88.13;100831.84;5024832;28;20029;-72
2021/12/03 10:20:49;;;;;;;21.27;7.40;;;;;;;2.57;87.87;100824.38;5019883;28;20128;-72
2021/12/03 10:39:16;;;;;;;15.13;6.57;;;;;;;2.69;88.34;100784.16;5024313;28;20029;-72
2021/12/03 10:41:25;;;;;;;17.33;6.45;;;;;;;2.75;88.07;100780.69;4986669;28;20523;-72
2021/12/03 10:46:53;;;;;;;19.83;6.93;;;;;;;2.81;87.79;100758.28;5008378;28;20065;-72
2021/12/03 10:49:44;;;;;;;17.27;6.43;;;;;;;2.87;87.66;100756.69;5013125;28;20087;-72
2021/12/03 10:52:31;;;;;;;18.05;7.30;;;;;;;2.94;87.85;100741.41;5027469;28;20025;-71
2021/12/03 11:00:30;;;;;;;21.25;7.47;;;;;;;3.04;87.66;100730.25;5007460;28;20056;-72
2021/12/03 11:08:26;;;;;;;19.15;6.57;;;;;;;3.20;86.05;100724.69;5005844;28;20038;-73
2021/12/03 11:21:57;;;;;;;16.58;8.27;;;;;;;3.35;85.12;100683.97;5024083;28;20041;-72
2021/12/03 11:35:31;;;;;;;19.00;8.68;;;;;;;3.55;84.14;100654.38;5006707;28;20612;-72
2021/12/03 11:52:22;;;;;;;16.55;7.63;;;;;;;3.78;82.75;100646.91;5005806;28;20109;-71
2021/12/03 11:58:11;;;;;;;17.00;6.95;;;;;;;3.90;82.69;100637.25;5011491;28;20641;-71
2021/12/03 12:18:01;;;;;;;16.92;6.40;;;;;;;4.01;80.35;100619.59;5007700;28;20033;-72
2021/12/03 12:26:09;;;;;;;17.95;7.50;;;;;;;4.06;80.66;100556.50;4998403;28;20061;-72
2021/12/03 12:57:32;;;;;;;12.80;5.47;;;;;;;4.14;78.11;100527.28;5003512;28;20136;-72
2021/12/03 13:08:45;;;;;;;7.60;4.20;;;;;;;4.25;76.96;100523.19;5002918;28;20038;-72
2021/12/03 13:31:11;;;;;;;11.38;4.78;;;;;;;4.15;77.89;100487.38;5000591;28;20049;-74
2021/12/03 13:59:52;;;;;;;13.88;5.90;;;;;;;3.70;83.57;100467.81;5002947;28;20038;-72
2021/12/03 14:08:10;;;;;;;9.10;4.72;;;;;;;3.68;83.99;100460.88;5001307;28;20042;-73
2021/12/03 14:26:16;;;;;;;9.10;5.35;;;;;;;3.50;86.48;100453.19;5003294;28;20049;-73
2021/12/03 14:35:47;;;;;;;8.85;4.38;;;;;;;3.60;85.52;100454.53;4999957;28;20168;-73
2021/12/03 14:45:45;;;;;;;7.90;4.55;;;;;;;3.62;86.06;100462.50;5005549;28;20033;-73
2021/12/03 14:48:36;;;;;;;7.95;4.60;;;;;;;3.60;85.86;100459.97;4983451;28;20493;-71
2021/12/03 14:57:11;;;;;;;11.05;4.75;;;;;;;3.56;86.79;100474.13;5002710;28;20050;-70
2021/12/03 14:59:40;;;;;;;13.18;4.88;;;;;;;3.56;86.86;100461.41;5022136;28;20064;-70
2021/12/03 15:02:22;;;;;;;9.52;5.05;;;;;;;3.55;87.23;100467.88;5022219;28;20022;-70
2021/12/03 15:07:38;;;;;;;8.43;4.53;;;;;;;3.54;87.49;100459.91;5005398;28;20070;-71
2021/12/03 15:10:08;;;;;;;10.15;5.13;;;;;;;3.52;88.29;100456.53;4997912;28;20047;-71
2021/12/03 15:16:00;;;;;;;9.15;5.80;;;;;;;3.47;89.29;100454.41;5008609;28;20384;-70